Weather at Metropolitan Oakland International Airport

Public forecast

Using degrees Fahrenheit for public forecast. Weather courtesy of forecast.io.

Current aviation weather report (METAR) for Metropolitan Oakland International Airport

Retrieved 2021/01/20 20:53 UTC (51 minutes ago):

KOAK 202053Z 31007KT 10SM CLR 18/M03 A3011 RMK AO2 SLP194 T01781033 58019

Aviation forecast (TAF) for Metropolitan Oakland International Airport

Retrieved 2021/01/20 18:46 UTC (3 hours ago):

TAF KOAK 201744Z 2018/2124 VRB04KT P6SM FEW200 FM202100 30007KT P6SM FEW200 FM210300 28004KT P6SM FEW200 FM210600 33003KT P6SM SCT200 FM212200 28007KT P6SM BKN200